Hudson, Kentucky
Current Conditions -  °F | °C
As of 12:58 AM on Thursday 23 Oct 2014 (Local Time) from KFTK Reporting Station
Clear Clear  
Wind Chill:   Ceiling: Unl
Heat Index:   Visibility: 10mi
Dew Point:   Wind: 3mph
Humidity: 94%   Direction: 10°N
Pressure: 30.24"   Gusts: NA
Location:  37.65°N, 86.28°W
Report Text: KFTK 230558Z AUTO 01003KT 10SM CLR 04/03 A3024 RMK AO2 SLP245 T00390030 10092 20037 51000
Loading
Personal Weather Stations






























Interactive Weather Map
Tropical Storm Tracking
New forecast layout! Learn more

10-Day Weather Forecast

Advertisements
Track Severe Weather on mobile